Time;durP1;ratioP1;P1;durP2;ratioP2;P2;SDS_P1;SDS_P2;PMS_P1;PMS_P2;Temp;Humidity;BMP_temperature;BMP_pressure;BME280_temperature;BME280_humidity;BME280_pressure;Samples;Min_cycle;Max_cycle;Signal;HPM_P1;HPM_P2
2022/01/24 00:02:15;;;;;;;32.38;20.55;;;5.30;99.90;;;;;;5053754;27;88478;-31
2022/01/24 00:04:40;;;;;;;25.50;19.33;;;5.30;99.90;;;;;;5053068;27;89719;-31
2022/01/24 00:07:06;;;;;;;28.13;20.83;;;5.30;99.90;;;;;;5053539;27;88375;-32
2022/01/24 00:09:32;;;;;;;30.20;20.10;;;5.30;99.90;;;;;;5053368;27;87940;-31
2022/01/24 00:12:13;;;;;;;28.05;22.33;;;5.30;99.90;;;;;;5053628;27;89107;-30
2022/01/24 00:17:39;;;;;;;28.88;23.45;;;5.30;99.90;;;;;;5053099;27;90548;-32
2022/01/24 00:28:09;;;;;;;36.47;28.77;;;5.30;99.90;;;;;;5053595;27;90097;-30
2022/01/24 00:30:35;;;;;;;36.25;26.63;;;5.30;99.90;;;;;;5052888;27;87645;-31
2022/01/24 00:33:00;;;;;;;32.38;26.08;;;5.30;99.90;;;;;;5053358;27;90903;-34
2022/01/24 00:35:26;;;;;;;34.50;26.48;;;5.30;99.90;;;;;;5052921;27;89305;-34
2022/01/24 00:37:51;;;;;;;31.70;26.38;;;5.30;99.90;;;;;;5034834;27;91517;-30
2022/01/24 00:40:17;;;;;;;28.95;24.63;;;5.30;99.90;;;;;;5052802;27;88903;-31
2022/01/24 00:42:53;;;;;;;32.80;25.48;;;5.30;99.90;;;;;;5052546;27;90144;-30
2022/01/24 00:45:48;;;;;;;30.35;26.60;;;5.30;99.90;;;;;;5052647;27;89628;-29
2022/01/24 00:55:54;;;;;;;33.33;26.27;;;5.20;99.90;;;;;;5052329;27;89486;-30
2022/01/24 00:58:20;;;;;;;31.38;25.20;;;5.20;99.90;;;;;;5054012;27;88682;-30
2022/01/24 01:00:45;;;;;;;34.75;26.95;;;5.20;99.90;;;;;;5055879;27;88954;-30
2022/01/24 01:03:11;;;;;;;31.17;25.00;;;5.20;99.90;;;;;;5056499;27;90267;-31
2022/01/24 01:18:46;;;;;;;29.92;24.27;;;5.20;99.90;;;;;;5055750;27;89697;-32
2022/01/24 01:21:14;;;;;;;32.65;24.50;;;5.20;99.90;;;;;;5038061;27;89382;-30
2022/01/24 01:23:47;;;;;;;26.30;23.25;;;5.20;99.90;;;;;;5056212;27;89126;-31
2022/01/24 01:26:31;;;;;;;32.08;23.13;;;5.20;99.90;;;;;;5055771;27;89765;-31
2022/01/24 01:29:02;;;;;;;30.17;24.55;;;5.20;99.90;;;;;;5055791;27;89491;-29
2022/01/24 01:31:41;;;;;;;30.58;23.73;;;5.20;99.90;;;;;;5055601;27;88737;-29
2022/01/24 01:34:32;;;;;;;27.55;22.00;;;5.20;99.90;;;;;;5055886;27;90612;-32
2022/01/24 01:53:18;;;;;;;28.45;21.35;;;5.20;99.90;;;;;;5055367;27;87577;-30
2022/01/24 01:55:44;;;;;;;29.23;21.73;;;5.20;99.90;;;;;;5055064;27;91560;-31
2022/01/24 01:58:12;;;;;;;26.55;21.38;;;5.20;99.90;;;;;;5054930;27;90677;-30
2022/01/24 02:00:41;;;;;;;23.20;19.60;;;5.20;99.90;;;;;;5037125;27;90461;-31
2022/01/24 02:03:07;;;;;;;21.92;19.52;;;5.10;99.90;;;;;;5055387;27;87663;-32
2022/01/24 02:05:33;;;;;;;28.27;22.13;;;5.10;99.90;;;;;;5055460;27;90216;-31
2022/01/24 02:07:59;;;;;;;24.10;21.42;;;5.10;99.90;;;;;;5054560;27;89868;-30
2022/01/24 02:10:25;;;;;;;28.73;20.90;;;5.10;99.90;;;;;;5054562;27;89515;-30
2022/01/24 02:12:54;;;;;;;25.95;19.83;;;5.10;99.90;;;;;;5055110;27;87925;-31
2022/01/24 02:18:14;;;;;;;22.70;20.40;;;5.10;99.90;;;;;;5022173;27;89749;-30
2022/01/24 02:26:00;;;;;;;28.35;19.52;;;5.10;99.90;;;;;;5054687;27;90269;-30
2022/01/24 02:28:32;;;;;;;23.48;18.95;;;5.10;99.90;;;;;;5054568;27;89877;-35
2022/01/24 02:33:45;;;;;;;22.23;17.70;;;5.10;99.90;;;;;;5054820;27;87561;-32
2022/01/24 02:36:10;;;;;;;27.20;20.08;;;5.10;99.90;;;;;;5054354;27;89044;-29
2022/01/24 02:38:56;;;;;;;23.75;18.83;;;5.10;99.90;;;;;;5054659;27;89849;-37
2022/01/24 02:49:35;;;;;;;22.75;18.98;;;5.10;99.90;;;;;;5053939;27;90686;-30
2022/01/24 02:52:12;;;;;;;26.13;20.40;;;5.00;99.90;;;;;;5054295;27;90597;-32
2022/01/24 02:54:39;;;;;;;24.77;18.30;;;5.00;99.90;;;;;;5054390;27;88004;-33
2022/01/24 02:57:06;;;;;;;23.35;18.42;;;5.00;99.90;;;;;;5054149;27;90439;-30
2022/01/24 02:59:32;;;;;;;24.00;19.27;;;5.00;99.90;;;;;;5036576;27;89998;-30
2022/01/24 03:01:58;;;;;;;25.75;19.67;;;5.00;99.90;;;;;;5053551;27;89929;-32
2022/01/24 03:04:24;;;;;;;20.60;17.13;;;5.00;99.90;;;;;;5054153;27;87663;-33
2022/01/24 03:06:50;;;;;;;24.08;19.30;;;5.00;99.90;;;;;;5053688;27;90310;-30
2022/01/24 03:09:16;;;;;;;20.83;18.67;;;5.00;99.90;;;;;;5053757;27;89553;-30
2022/01/24 03:14:14;;;;;;;29.35;19.88;;;5.00;99.90;;;;;;5053430;27;88248;-33
2022/01/24 03:16:40;;;;;;;20.48;17.40;;;5.00;99.90;;;;;;5053399;27;90455;-32
2022/01/24 03:19:05;;;;;;;22.45;18.85;;;5.00;99.90;;;;;;5053982;27;89815;-32
2022/01/24 03:21:31;;;;;;;19.55;15.05;;;5.00;99.90;;;;;;5033975;27;89510;-32
2022/01/24 03:23:57;;;;;;;23.05;18.75;;;5.10;99.90;;;;;;5054107;27;88374;-30
2022/01/24 03:26:22;;;;;;;21.73;18.40;;;5.10;99.90;;;;;;5053317;27;90436;-33
2022/01/24 03:28:48;;;;;;;20.52;18.33;;;5.00;99.90;;;;;;5053404;27;89643;-31
2022/01/24 03:31:14;;;;;;;21.08;16.98;;;5.00;99.90;;;;;;5053534;27;89741;-30
2022/01/24 03:33:39;;;;;;;19.88;17.67;;;5.00;99.90;;;;;;5053409;27;87660;-33
2022/01/24 03:36:05;;;;;;;23.08;16.90;;;5.00;99.90;;;;;;5053310;27;90119;-30
2022/01/24 03:38:30;;;;;;;21.05;17.63;;;5.00;99.90;;;;;;5051043;27;90760;-33
2022/01/24 03:40:56;;;;;;;23.60;18.85;;;5.00;99.90;;;;;;5053255;27;90597;-31
2022/01/24 03:43:22;;;;;;;19.52;16.98;;;5.00;99.90;;;;;;5053788;27;87747;-29
2022/01/24 03:46:09;;;;;;;21.33;18.02;;;5.00;99.90;;;;;;5052361;27;90731;-36
2022/01/24 03:48:42;;;;;;;19.63;16.77;;;4.90;99.90;;;;;;5053222;27;89986;-32
2022/01/24 03:51:10;;;;;;;21.13;16.08;;;4.90;99.90;;;;;;5053631;27;89085;-34
2022/01/24 03:53:36;;;;;;;19.43;17.33;;;4.90;99.90;;;;;;5053363;27;87440;-30
2022/01/24 03:56:03;;;;;;;20.73;17.55;;;4.90;99.90;;;;;;5053062;27;90213;-31
2022/01/24 03:58:28;;;;;;;22.98;18.20;;;4.90;99.90;;;;;;5053749;27;88123;-30
2022/01/24 04:00:55;;;;;;;19.27;17.25;;;4.90;99.90;;;;;;5053304;27;90293;-32
2022/01/24 04:03:21;;;;;;;22.10;17.05;;;4.90;99.90;;;;;;5035149;27;88842;-30
2022/01/24 04:05:47;;;;;;;22.83;18.67;;;4.90;99.90;;;;;;5052998;27;89212;-32
2022/01/24 04:08:13;;;;;;;21.98;17.80;;;4.90;99.90;;;;;;5053617;27;89582;-30
2022/01/24 04:10:44;;;;;;;20.58;17.80;;;4.90;99.90;;;;;;5053196;27;89678;-33
2022/01/24 04:13:26;;;;;;;21.02;17.95;;;4.80;99.90;;;;;;5053728;27;88960;-33
2022/01/24 04:16:12;;;;;;;21.75;18.35;;;4.90;99.90;;;;;;5053203;27;90286;-30
2022/01/24 04:21:17;;;;;;;27.88;18.98;;;4.90;99.90;;;;;;5053385;27;89148;-30
2022/01/24 04:21:33;;;;;;;23.38;18.90;;;4.90;99.90;;;;;;5047143;27;89572;-31
2022/01/24 04:24:05;;;;;;;26.08;20.02;;;4.90;99.90;;;;;;5053172;27;87871;-34
2022/01/24 04:26:31;;;;;;;28.40;22.75;;;4.90;99.90;;;;;;5053432;27;90170;-30
2022/01/24 04:28:58;;;;;;;28.77;22.77;;;4.90;99.90;;;;;;5052598;27;90779;-31
2022/01/24 04:31:24;;;;;;;24.90;18.10;;;4.90;99.90;;;;;;5053091;27;90722;-30
2022/01/24 04:33:50;;;;;;;22.17;18.38;;;4.90;99.90;;;;;;5054768;27;87624;-31
2022/01/24 04:36:16;;;;;;;24.48;18.75;;;4.90;99.90;;;;;;5056773;27;90075;-30
2022/01/24 04:38:43;;;;;;;21.48;18.35;;;4.90;99.90;;;;;;5056791;27;88740;-30
2022/01/24 04:41:17;;;;;;;24.77;19.38;;;4.90;99.90;;;;;;5056725;27;89180;-32
2022/01/24 04:46:19;;;;;;;25.10;20.90;;;4.90;99.90;;;;;;5056168;27;90502;-31
2022/01/24 04:56:37;;;;;;;26.70;20.90;;;4.80;99.90;;;;;;5056440;27;90200;-30
2022/01/24 04:59:02;;;;;;;26.70;21.15;;;4.80;99.90;;;;;;5056190;27;88820;-32
2022/01/24 05:01:28;;;;;;;27.38;22.02;;;4.80;99.90;;;;;;5056048;27;89375;-31
2022/01/24 05:03:54;;;;;;;27.67;22.08;;;4.80;99.90;;;;;;5055724;27;87807;-30
2022/01/24 05:06:19;;;;;;;29.17;22.90;;;4.80;99.90;;;;;;5055963;27;90045;-30
2022/01/24 05:08:45;;;;;;;25.73;21.90;;;4.80;99.90;;;;;;5055811;27;88772;-33
2022/01/24 05:11:15;;;;;;;28.35;22.70;;;4.80;99.90;;;;;;5056424;27;88298;-31
2022/01/24 05:24:31;;;;;;;30.65;24.23;;;4.80;99.90;;;;;;5056321;27;87553;-30
2022/01/24 05:26:56;;;;;;;30.55;24.33;;;4.80;99.90;;;;;;5055645;27;90417;-29
2022/01/24 05:29:22;;;;;;;31.00;23.02;;;4.80;99.90;;;;;;5055935;27;89624;-30
2022/01/24 05:31:48;;;;;;;27.05;21.33;;;4.80;99.90;;;;;;5055802;27;89397;-31
2022/01/24 05:34:13;;;;;;;29.80;23.40;;;4.80;99.90;;;;;;5055838;27;87649;-31
2022/01/24 05:36:39;;;;;;;27.83;23.13;;;4.80;99.90;;;;;;5056216;27;90637;-32
2022/01/24 05:39:05;;;;;;;27.95;21.83;;;4.70;99.90;;;;;;5055320;27;89558;-30
2022/01/24 05:41:32;;;;;;;28.70;25.25;;;4.80;99.90;;;;;;5055818;27;90515;-32
2022/01/24 05:43:57;;;;;;;30.23;21.95;;;4.80;99.90;;;;;;5054858;27;88504;-30
2022/01/24 05:46:23;;;;;;;26.58;20.88;;;4.80;99.90;;;;;;5054000;27;89666;-30
2022/01/24 05:48:49;;;;;;;30.10;21.42;;;4.70;99.90;;;;;;5055480;27;90318;-30
2022/01/24 05:51:15;;;;;;;27.27;22.15;;;4.70;99.90;;;;;;5055261;27;90454;-30
2022/01/24 05:53:41;;;;;;;28.38;23.50;;;4.80;99.90;;;;;;5055746;27;88466;-31
2022/01/24 05:56:07;;;;;;;30.55;24.25;;;4.70;99.90;;;;;;5055139;27;90304;-32
2022/01/24 05:58:32;;;;;;;31.25;22.77;;;4.70;99.90;;;;;;5055248;27;89611;-33
2022/01/24 06:00:58;;;;;;;28.98;22.38;;;4.70;99.90;;;;;;5055551;27;89317;-34
2022/01/24 06:03:24;;;;;;;27.35;23.20;;;4.70;99.90;;;;;;5055511;27;87502;-30
2022/01/24 06:05:49;;;;;;;28.92;22.95;;;4.70;99.90;;;;;;5054633;27;89835;-30
2022/01/24 06:08:15;;;;;;;27.42;22.77;;;4.70;99.90;;;;;;5054376;27;90668;-30
2022/01/24 06:10:41;;;;;;;30.17;23.40;;;4.70;99.90;;;;;;5055226;27;90441;-31
2022/01/24 06:13:07;;;;;;;30.90;24.10;;;4.70;99.90;;;;;;5054884;27;88483;-34
2022/01/24 06:15:33;;;;;;;26.77;23.13;;;4.70;99.90;;;;;;5055251;27;90193;-31
2022/01/24 06:17:58;;;;;;;29.52;24.65;;;4.70;99.90;;;;;;5054698;27;89789;-33
2022/01/24 06:20:24;;;;;;;31.40;24.25;;;4.70;99.90;;;;;;5054840;27;89475;-29
2022/01/24 06:22:50;;;;;;;37.55;25.65;;;4.70;99.90;;;;;;5054869;27;88738;-30
2022/01/24 06:25:21;;;;;;;31.80;25.02;;;4.70;99.90;;;;;;5055434;27;89243;-32
2022/01/24 06:27:47;;;;;;;31.25;25.98;;;4.70;99.90;;;;;;5054752;27;89733;-31
2022/01/24 06:30:12;;;;;;;34.65;27.35;;;4.70;99.90;;;;;;5055147;27;89392;-30
2022/01/24 06:32:38;;;;;;;32.53;26.52;;;4.70;99.90;;;;;;5054841;27;89056;-31
2022/01/24 06:35:04;;;;;;;36.45;27.02;;;4.70;99.90;;;;;;5054419;27;89932;-33
2022/01/24 06:37:30;;;;;;;32.35;26.25;;;4.70;99.90;;;;;;5054600;27;90517;-34
2022/01/24 06:39:56;;;;;;;37.85;27.88;;;4.70;99.90;;;;;;5054828;27;89365;-31
2022/01/24 06:42:23;;;;;;;38.13;29.50;;;4.70;99.90;;;;;;5055118;27;87746;-34
2022/01/24 06:44:53;;;;;;;38.38;28.00;;;4.70;99.90;;;;;;5054841;27;90286;-29
2022/01/24 06:47:19;;;;;;;32.60;26.13;;;4.70;99.90;;;;;;5054388;27;89947;-32
2022/01/24 06:49:45;;;;;;;40.15;31.45;;;4.70;99.90;;;;;;5055023;27;89761;-30
2022/01/24 06:52:10;;;;;;;40.85;31.35;;;4.70;99.90;;;;;;5053734;27;87982;-33
2022/01/24 06:54:37;;;;;;;43.50;33.28;;;4.70;99.90;;;;;;5055009;27;90361;-30
2022/01/24 06:57:04;;;;;;;50.90;34.65;;;4.70;99.90;;;;;;5053239;27;90564;-31
2022/01/24 06:59:29;;;;;;;41.65;32.78;;;4.70;99.90;;;;;;5054314;27;90449;-30
2022/01/24 07:01:55;;;;;;;46.70;35.30;;;4.70;99.90;;;;;;5054468;27;87668;-31
2022/01/24 07:04:21;;;;;;;50.08;34.85;;;4.70;99.90;;;;;;5054346;27;89972;-30
2022/01/24 07:06:46;;;;;;;46.53;33.40;;;4.70;99.90;;;;;;5054285;27;89792;-32
2022/01/24 07:09:13;;;;;;;55.88;39.50;;;4.70;99.90;;;;;;5054342;27;89473;-31
2022/01/24 07:11:39;;;;;;;53.83;39.22;;;4.70;99.90;;;;;;5054030;27;87616;-33
2022/01/24 07:14:10;;;;;;;55.83;39.63;;;4.70;99.90;;;;;;5054397;27;90331;-33
2022/01/24 07:19:23;;;;;;;60.58;42.13;;;4.70;99.90;;;;;;5011573;27;89737;-30
2022/01/24 07:21:48;;;;;;;56.58;41.47;;;4.70;99.90;;;;;;5053701;27;88274;-30
2022/01/24 07:24:14;;;;;;;54.47;38.88;;;4.70;99.90;;;;;;5053672;27;90057;-34
2022/01/24 07:26:40;;;;;;;60.45;40.33;;;4.70;99.90;;;;;;5054176;27;89235;-30
2022/01/24 07:29:06;;;;;;;55.05;42.95;;;4.70;99.90;;;;;;5052093;27;89856;-30
2022/01/24 07:31:31;;;;;;;55.80;42.10;;;4.70;99.90;;;;;;5051249;27;87907;-32
2022/01/24 07:33:57;;;;;;;57.97;43.50;;;4.70;99.90;;;;;;5033104;27;90264;-32
2022/01/24 07:36:24;;;;;;;62.33;41.75;;;4.70;99.90;;;;;;5051017;27;88748;-31
2022/01/24 07:38:49;;;;;;;60.53;43.17;;;4.70;99.90;;;;;;5051528;27;89719;-30
2022/01/24 07:41:17;;;;;;;59.05;40.08;;;4.70;99.90;;;;;;5051029;27;87992;-31
2022/01/24 07:43:43;;;;;;;66.97;42.95;;;4.70;99.90;;;;;;5051570;27;90244;-32
2022/01/24 07:46:09;;;;;;;57.67;41.10;;;4.70;99.90;;;;;;5049696;27;91094;-30
2022/01/24 07:48:34;;;;;;;64.97;42.20;;;4.60;99.90;;;;;;5051392;27;90388;-32
2022/01/24 07:51:00;;;;;;;55.70;41.75;;;4.70;99.90;;;;;;5051251;27;88297;-32
2022/01/24 07:53:25;;;;;;;59.60;40.20;;;4.70;99.90;;;;;;5050610;27;90258;-33
2022/01/24 07:55:53;;;;;;;60.60;42.58;;;4.70;99.90;;;;;;5051348;27;89379;-31
2022/01/24 07:58:19;;;;;;;53.90;41.20;;;4.70;99.90;;;;;;5051388;27;88448;-31
2022/01/24 08:00:45;;;;;;;55.65;40.60;;;4.70;99.90;;;;;;5051562;27;88544;-30
2022/01/24 08:03:10;;;;;;;58.05;41.47;;;4.70;99.90;;;;;;5051051;27;90727;-32
2022/01/24 08:05:36;;;;;;;56.38;42.55;;;4.70;99.90;;;;;;5050788;27;88840;-31
2022/01/24 08:08:03;;;;;;;64.82;41.80;;;4.70;99.90;;;;;;5051793;27;88984;-35
2022/01/24 08:10:29;;;;;;;61.25;44.22;;;4.70;99.90;;;;;;5036556;27;88336;-33
2022/01/24 08:12:55;;;;;;;65.13;45.67;;;4.70;99.90;;;;;;5054032;27;90032;-33
2022/01/24 08:15:20;;;;;;;62.88;44.17;;;4.70;99.90;;;;;;5054339;27;88203;-30
2022/01/24 08:17:47;;;;;;;63.75;48.08;;;4.80;99.90;;;;;;5054114;27;89716;-32
2022/01/24 08:20:14;;;;;;;64.13;44.78;;;4.80;99.90;;;;;;5054622;27;88210;-29
2022/01/24 08:22:40;;;;;;;67.07;46.65;;;4.80;99.90;;;;;;5054217;27;90102;-32
2022/01/24 08:25:06;;;;;;;54.22;42.33;;;4.80;99.90;;;;;;5054065;27;89707;-33
2022/01/24 08:27:33;;;;;;;68.43;46.83;;;4.80;99.90;;;;;;5054385;27;89128;-31
2022/01/24 08:29:59;;;;;;;61.97;43.15;;;4.80;99.90;;;;;;5054338;27;87549;-33
2022/01/24 08:32:24;;;;;;;64.93;45.80;;;4.80;99.90;;;;;;5053915;27;90226;-29
2022/01/24 08:34:50;;;;;;;59.75;42.97;;;4.80;99.90;;;;;;5053508;27;90706;-35
2022/01/24 08:37:16;;;;;;;56.80;41.75;;;4.80;99.90;;;;;;5053869;27;90354;-30
2022/01/24 08:39:44;;;;;;;70.40;44.22;;;4.80;99.90;;;;;;5054475;27;87928;-33
2022/01/24 08:42:16;;;;;;;53.57;41.13;;;4.80;99.90;;;;;;5053934;27;90322;-34
2022/01/24 08:47:22;;;;;;;60.22;44.03;;;4.90;99.90;;;;;;5053505;27;89464;-34
2022/01/24 08:49:48;;;;;;;62.22;43.67;;;4.90;99.90;;;;;;5054215;27;87668;-32
2022/01/24 08:52:13;;;;;;;63.83;44.83;;;4.90;99.90;;;;;;5053882;27;90269;-30
2022/01/24 08:54:39;;;;;;;69.47;48.72;;;4.90;99.90;;;;;;5054059;27;88717;-32
2022/01/24 08:57:05;;;;;;;69.63;49.08;;;4.90;99.90;;;;;;5053151;27;89945;-32
2022/01/24 08:59:32;;;;;;;66.13;47.72;;;4.90;99.90;;;;;;5053589;27;88733;-31
2022/01/24 09:01:58;;;;;;;71.03;49.55;;;4.90;99.90;;;;;;5054016;27;88836;-33
2022/01/24 09:04:24;;;;;;;67.07;48.03;;;4.90;99.90;;;;;;5053978;27;89770;-32
2022/01/24 09:06:49;;;;;;;66.35;48.30;;;4.90;99.90;;;;;;5053881;27;89119;-33
2022/01/24 09:09:15;;;;;;;72.43;50.10;;;5.00;99.90;;;;;;5035136;27;88361;-34
2022/01/24 09:11:41;;;;;;;77.05;53.60;;;5.00;99.90;;;;;;5053711;27;90714;-30
2022/01/24 09:14:08;;;;;;;68.72;48.03;;;5.00;99.90;;;;;;5053543;27;89668;-32
2022/01/24 09:16:35;;;;;;;68.28;50.67;;;5.00;99.90;;;;;;5053830;27;90179;-34
2022/01/24 09:19:01;;;;;;;65.93;48.25;;;5.00;99.90;;;;;;5051913;27;88699;-30
2022/01/24 09:21:29;;;;;;;74.00;52.58;;;5.00;99.90;;;;;;5053674;27;90257;-31
2022/01/24 09:23:54;;;;;;;68.57;49.83;;;5.00;99.90;;;;;;5052524;27;91103;-34
2022/01/24 09:26:20;;;;;;;75.50;55.45;;;5.10;99.90;;;;;;5053695;27;90537;-33
2022/01/24 09:28:46;;;;;;;76.43;53.90;;;5.10;99.90;;;;;;5051840;27;88184;-32
2022/01/24 09:31:12;;;;;;;74.00;52.40;;;5.10;99.90;;;;;;5053359;27;90412;-30
2022/01/24 09:33:37;;;;;;;70.22;52.03;;;5.10;99.90;;;;;;5053218;27;89603;-30
2022/01/24 09:36:04;;;;;;;76.63;50.88;;;5.10;99.90;;;;;;5034593;27;90793;-29
2022/01/24 09:38:32;;;;;;;68.28;51.42;;;5.10;99.90;;;;;;5053395;27;88287;-30
2022/01/24 09:40:59;;;;;;;73.82;53.33;;;5.10;99.90;;;;;;5052861;27;90298;-30
2022/01/24 09:43:25;;;;;;;72.32;51.95;;;5.20;99.90;;;;;;5053218;27;88379;-32
2022/01/24 09:45:51;;;;;;;78.68;55.10;;;5.20;99.90;;;;;;5053036;27;89684;-32
2022/01/24 09:48:17;;;;;;;79.15;55.47;;;5.20;99.90;;;;;;5052943;27;88821;-31
2022/01/24 09:50:50;;;;;;;77.65;55.63;;;5.20;99.90;;;;;;5053220;27;88981;-31
2022/01/24 09:53:16;;;;;;;75.85;55.05;;;5.20;99.90;;;;;;5052655;27;89560;-32
2022/01/24 09:55:42;;;;;;;75.63;54.50;;;5.20;99.90;;;;;;5053382;27;88233;-34
2022/01/24 09:58:08;;;;;;;81.75;56.95;;;5.30;99.90;;;;;;5052472;27;88406;-31
2022/01/24 10:00:33;;;;;;;82.68;58.28;;;5.30;99.90;;;;;;5052329;27;90505;-31
2022/01/24 10:03:00;;;;;;;79.70;58.13;;;5.30;99.90;;;;;;5052447;27;89730;-30
2022/01/24 10:05:30;;;;;;;74.45;57.33;;;5.30;99.90;;;;;;5052722;27;89026;-31
2022/01/24 10:07:58;;;;;;;76.60;56.55;;;5.30;99.90;;;;;;5052990;27;88356;-32
2022/01/24 10:10:26;;;;;;;81.37;59.50;;;5.30;99.90;;;;;;5052755;27;90367;-30
2022/01/24 10:18:06;;;;;;;77.95;53.95;;;5.30;99.90;;;;;;5052924;27;88737;-32
2022/01/24 10:20:37;;;;;;;85.45;58.65;;;5.40;99.90;;;;;;5052891;27;90616;-32
2022/01/24 10:23:08;;;;;;;80.18;57.85;;;5.40;99.90;;;;;;5054120;27;90017;-32
2022/01/24 10:25:59;;;;;;;76.88;54.75;;;5.40;99.90;;;;;;5054074;27;88266;-32
2022/01/24 10:28:33;;;;;;;75.53;55.35;;;5.40;99.90;;;;;;5054997;27;88035;-30
2022/01/24 10:31:23;;;;;;;80.88;57.75;;;5.40;99.90;;;;;;5054575;27;90411;-34
2022/01/24 10:34:13;;;;;;;78.57;54.78;;;5.40;99.90;;;;;;5054860;27;88308;-31
2022/01/24 10:36:42;;;;;;;69.32;52.90;;;5.40;99.90;;;;;;5055183;27;89527;-30
2022/01/24 10:39:42;;;;;;;78.40;54.72;;;5.50;99.90;;;;;;5054273;27;88713;-30
2022/01/24 10:45:20;;;;;;;72.05;55.15;;;5.50;99.90;;;;;;5054491;27;89633;-36
2022/01/24 10:47:49;;;;;;;64.68;49.67;;;5.50;99.90;;;;;;5054594;27;89508;-33
2022/01/24 10:50:30;;;;;;;65.97;54.22;;;5.50;99.90;;;;;;5054537;27;87480;-33
2022/01/24 10:53:11;;;;;;;70.68;53.08;;;5.50;99.90;;;;;;5054558;27;88993;-29
2022/01/24 10:55:38;;;;;;;66.93;51.60;;;5.50;99.90;;;;;;5054538;27;89137;-30
2022/01/24 10:58:04;;;;;;;78.85;57.65;;;5.50;99.90;;;;;;5052774;27;89439;-31
2022/01/24 11:00:30;;;;;;;68.88;53.08;;;5.50;99.90;;;;;;5055144;27;89127;-31
2022/01/24 11:02:59;;;;;;;73.55;54.83;;;5.50;99.90;;;;;;5053986;27;90431;-29
2022/01/24 11:05:37;;;;;;;68.15;52.38;;;5.50;99.90;;;;;;5053567;27;90038;-30
2022/01/24 11:08:09;;;;;;;72.20;57.40;;;5.50;99.90;;;;;;5053857;27;90629;-32
2022/01/24 11:10:46;;;;;;;77.72;57.55;;;5.50;99.90;;;;;;5054542;27;87502;-31
2022/01/24 11:13:14;;;;;;;72.97;57.85;;;5.50;99.90;;;;;;5053489;27;90274;-32
2022/01/24 11:15:48;;;;;;;66.47;54.78;;;5.60;99.90;;;;;;5035742;27;90166;-30
2022/01/24 11:18:16;;;;;;;74.20;56.80;;;5.60;99.90;;;;;;5053631;27;89892;-30
2022/01/24 11:20:45;;;;;;;72.00;56.67;;;5.60;99.90;;;;;;5036452;27;88542;-29
2022/01/24 11:23:13;;;;;;;79.93;60.40;;;5.60;99.90;;;;;;5054411;27;91867;-31
2022/01/24 11:25:47;;;;;;;78.18;59.28;;;5.60;99.90;;;;;;5054092;27;89999;-32
2022/01/24 11:28:13;;;;;;;81.55;60.90;;;5.60;99.90;;;;;;5053668;27;89598;-30
2022/01/24 11:30:48;;;;;;;80.45;61.45;;;5.60;99.90;;;;;;5053594;27;88440;-32
2022/01/24 11:33:19;;;;;;;79.22;58.58;;;5.50;99.90;;;;;;5053443;27;90083;-31
2022/01/24 11:35:54;;;;;;;72.40;55.13;;;5.60;99.90;;;;;;5054039;27;89746;-31
2022/01/24 11:38:37;;;;;;;75.28;54.97;;;5.60;99.90;;;;;;5053666;27;88082;-31
2022/01/24 11:41:13;;;;;;;73.80;56.80;;;5.60;99.90;;;;;;5053762;27;87594;-31
2022/01/24 11:43:45;;;;;;;72.80;55.20;;;5.50;99.90;;;;;;5052435;27;89520;-30
2022/01/24 11:46:31;;;;;;;75.72;57.67;;;5.50;99.90;;;;;;5067288;22;89069;-32
2022/01/24 11:49:06;;;;;;;70.68;56.35;;;5.60;99.90;;;;;;5013567;28;89538;-35
2022/01/24 11:51:33;;;;;;;77.00;57.88;;;5.60;99.90;;;;;;4995025;28;87606;-31
2022/01/24 11:54:00;;;;;;;76.72;56.78;;;5.50;99.90;;;;;;5013095;28;89399;-32
2022/01/24 11:56:28;;;;;;;79.95;58.08;;;5.60;99.90;;;;;;5013005;28;89555;-32
2022/01/24 11:59:23;;;;;;;72.78;56.72;;;5.60;99.90;;;;;;5013132;28;90839;-35
2022/01/24 12:02:10;;;;;;;80.85;61.53;;;5.50;99.90;;;;;;5013793;28;87676;-31
2022/01/24 12:04:53;;;;;;;71.88;58.40;;;5.50;99.90;;;;;;5013110;28;90182;-30
2022/01/24 12:07:26;;;;;;;77.20;56.70;;;5.50;99.90;;;;;;5012874;28;89739;-31
2022/01/24 12:09:54;;;;;;;77.75;58.85;;;5.60;99.90;;;;;;5012998;28;89551;-29
2022/01/24 12:12:49;;;;;;;72.82;58.30;;;5.60;99.90;;;;;;5012918;28;87561;-29
2022/01/24 12:15:59;;;;;;;72.47;56.28;;;5.60;99.90;;;;;;5013387;28;90149;-31
2022/01/24 12:18:28;;;;;;;71.03;55.17;;;5.60;99.90;;;;;;4986438;28;89552;-31
2022/01/24 12:21:14;;;;;;;76.57;55.83;;;5.60;99.90;;;;;;5013218;28;89722;-30
2022/01/24 12:23:47;;;;;;;74.75;56.35;;;5.60;99.90;;;;;;5010496;28;89591;-29
2022/01/24 12:26:13;;;;;;;77.22;53.95;;;5.60;99.90;;;;;;5012804;28;90178;-30
2022/01/24 12:28:41;;;;;;;67.90;53.35;;;5.60;99.90;;;;;;5012804;28;88615;-32
2022/01/24 12:31:20;;;;;;;68.43;54.75;;;5.60;99.90;;;;;;5012549;28;89657;-30
2022/01/24 12:34:04;;;;;;;79.85;56.42;;;5.60;99.90;;;;;;5012416;28;87632;-31
2022/01/24 12:36:46;;;;;;;75.47;55.80;;;5.60;99.90;;;;;;5012766;28;90356;-30
2022/01/24 12:39:26;;;;;;;72.22;52.30;;;5.60;99.90;;;;;;5012627;28;89902;-31
2022/01/24 12:42:15;;;;;;;68.28;52.20;;;5.60;99.90;;;;;;5013286;28;90358;-32
2022/01/24 12:47:18;;;;;;;68.68;50.60;;;5.50;99.90;;;;;;5013921;28;89059;-30
2022/01/24 12:49:45;;;;;;;65.15;52.78;;;5.50;99.90;;;;;;5005087;28;90478;-30
2022/01/24 12:52:13;;;;;;;62.50;45.90;;;5.50;99.90;;;;;;4988521;28;90561;-32
2022/01/24 12:54:44;;;;;;;68.30;48.15;;;5.50;99.90;;;;;;4991994;28;87484;-34
2022/01/24 12:57:16;;;;;;;64.32;47.70;;;5.50;99.90;;;;;;4993346;28;90457;-33
2022/01/24 13:00:04;;;;;;;65.38;48.92;;;5.50;99.90;;;;;;4992478;28;89708;-31
2022/01/24 13:02:31;;;;;;;60.60;46.92;;;5.50;99.90;;;;;;4993747;28;89111;-31
2022/01/24 13:05:03;;;;;;;59.13;47.07;;;5.50;99.90;;;;;;4992249;28;88352;-31
2022/01/24 13:07:31;;;;;;;54.15;44.47;;;5.50;99.90;;;;;;4993520;28;90251;-29
2022/01/24 13:10:15;;;;;;;61.65;46.83;;;5.50;99.90;;;;;;4993543;28;89896;-31
2022/01/24 13:12:43;;;;;;;64.45;48.22;;;5.50;99.90;;;;;;4992982;28;88607;-30
2022/01/24 13:15:23;;;;;;;59.78;47.65;;;5.50;99.90;;;;;;4991946;28;88482;-32
2022/01/24 13:23:06;;;;;;;64.13;49.25;;;5.40;99.90;;;;;;4992549;28;89423;-34
2022/01/24 13:25:36;;;;;;;61.13;49.47;;;5.40;99.90;;;;;;4993398;28;88338;-32
2022/01/24 13:28:13;;;;;;;64.95;51.00;;;5.40;99.90;;;;;;4992686;28;92145;-34
2022/01/24 13:30:42;;;;;;;71.28;52.65;;;5.40;99.90;;;;;;4993008;28;88170;-31
2022/01/24 13:33:11;;;;;;;67.82;51.63;;;5.40;99.90;;;;;;4992831;28;89765;-34
2022/01/24 13:35:41;;;;;;;71.80;49.90;;;5.40;99.90;;;;;;4993070;28;87704;-33
2022/01/24 13:38:15;;;;;;;67.82;50.67;;;5.40;99.90;;;;;;4992575;28;89093;-32
2022/01/24 13:40:56;;;;;;;66.30;50.15;;;5.40;99.90;;;;;;4990847;28;90582;-32
2022/01/24 13:43:44;;;;;;;70.88;50.03;;;5.40;99.90;;;;;;4992178;28;90380;-30
2022/01/24 13:46:16;;;;;;;69.80;50.83;;;5.30;99.90;;;;;;5001065;28;87968;-31
2022/01/24 13:49:01;;;;;;;76.20;51.95;;;5.30;99.90;;;;;;5012799;28;90510;-30
2022/01/24 13:51:40;;;;;;;64.85;50.85;;;5.40;99.90;;;;;;5012659;28;90309;-35
2022/01/24 13:54:11;;;;;;;59.08;45.30;;;5.30;99.90;;;;;;5011844;28;89337;-31
2022/01/24 13:56:45;;;;;;;59.70;46.28;;;5.30;99.90;;;;;;5011932;28;88310;-34
2022/01/24 13:59:24;;;;;;;68.20;50.72;;;5.20;99.90;;;;;;5012174;28;90309;-32
2022/01/24 14:01:56;;;;;;;71.95;52.15;;;5.20;99.90;;;;;;5012920;28;89661;-30
2022/01/24 14:04:57;;;;;;;63.50;50.20;;;5.20;99.90;;;;;;5012219;28;89734;-31
2022/01/24 14:07:30;;;;;;;73.13;53.80;;;5.20;99.90;;;;;;5010576;28;88684;-30
2022/01/24 14:09:57;;;;;;;67.50;49.53;;;5.20;99.90;;;;;;5012356;28;90009;-30
2022/01/24 14:12:29;;;;;;;69.95;50.15;;;5.20;99.90;;;;;;5012087;28;89750;-33
2022/01/24 14:15:53;;;;;;;65.72;49.95;;;5.20;99.90;;;;;;5011862;28;88955;-32
2022/01/24 14:20:49;;;;;;;62.92;49.22;;;5.20;99.90;;;;;;5011720;28;90396;-33
2022/01/24 14:23:35;;;;;;;61.10;45.67;;;5.10;99.90;;;;;;5011050;28;90078;-30
2022/01/24 14:26:17;;;;;;;58.22;46.47;;;5.10;99.90;;;;;;5011972;28;89304;-33
2022/01/24 14:28:43;;;;;;;56.35;45.60;;;5.10;99.90;;;;;;5011965;28;88357;-33
2022/01/24 14:31:14;;;;;;;61.45;46.45;;;5.10;99.90;;;;;;5011274;28;90395;-31
2022/01/24 14:33:41;;;;;;;57.42;46.83;;;5.10;99.90;;;;;;5011233;28;92576;-31
2022/01/24 14:36:13;;;;;;;54.05;45.38;;;5.10;99.90;;;;;;5010946;28;89111;-33
2022/01/24 14:38:44;;;;;;;53.42;44.47;;;5.00;99.90;;;;;;5011626;28;88155;-31
2022/01/24 14:41:21;;;;;;;53.67;44.30;;;5.10;99.90;;;;;;5011992;28;90095;-33
2022/01/24 14:46:36;;;;;;;46.63;40.60;;;5.00;99.90;;;;;;5011484;28;89923;-31
2022/01/24 14:49:07;;;;;;;51.45;42.15;;;5.00;99.90;;;;;;5011421;28;88491;-31